sensor_id;sensor_type;location;lat;lon;timestamp;temperature;humidity
11532;DHT22;5822;51.000;5.874;2023-08-06T00:00:39;18.60;99.90
11532;DHT22;5822;51.000;5.874;2023-08-06T00:03:05;18.50;99.90
11532;DHT22;5822;51.000;5.874;2023-08-06T00:05:31;18.50;99.90
11532;DHT22;5822;51.000;5.874;2023-08-06T00:07:56;18.60;99.90
11532;DHT22;5822;51.000;5.874;2023-08-06T00:10:22;18.50;99.90
11532;DHT22;5822;51.000;5.874;2023-08-06T00:12:48;18.50;99.90
11532;DHT22;5822;51.000;5.874;2023-08-06T00:15:14;18.50;99.90
11532;DHT22;5822;51.000;5.874;2023-08-06T00:17:39;18.40;99.90
11532;DHT22;5822;51.000;5.874;2023-08-06T00:20:06;18.40;99.90
11532;DHT22;5822;51.000;5.874;2023-08-06T00:22:33;18.50;99.90
11532;DHT22;5822;51.000;5.874;2023-08-06T00:24:59;18.40;99.90
11532;DHT22;5822;51.000;5.874;2023-08-06T00:27:25;18.40;99.90
11532;DHT22;5822;51.000;5.874;2023-08-06T00:29:51;18.40;99.90
11532;DHT22;5822;51.000;5.874;2023-08-06T00:32:17;18.30;99.90
11532;DHT22;5822;51.000;5.874;2023-08-06T00:34:43;18.30;99.90
11532;DHT22;5822;51.000;5.874;2023-08-06T00:37:08;18.30;99.90
11532;DHT22;5822;51.000;5.874;2023-08-06T00:39:34;18.30;99.90
11532;DHT22;5822;51.000;5.874;2023-08-06T00:42:00;18.30;99.90
11532;DHT22;5822;51.000;5.874;2023-08-06T00:44:26;18.30;99.90
11532;DHT22;5822;51.000;5.874;2023-08-06T00:46:51;18.30;99.90
11532;DHT22;5822;51.000;5.874;2023-08-06T00:49:17;18.30;99.90
11532;DHT22;5822;51.000;5.874;2023-08-06T00:51:43;18.30;99.90
11532;DHT22;5822;51.000;5.874;2023-08-06T00:54:09;18.20;99.90
11532;DHT22;5822;51.000;5.874;2023-08-06T00:56:35;18.20;99.90
11532;DHT22;5822;51.000;5.874;2023-08-06T00:59:05;18.20;99.90
11532;DHT22;5822;51.000;5.874;2023-08-06T01:01:31;18.20;99.90
11532;DHT22;5822;51.000;5.874;2023-08-06T01:03:57;18.20;99.90
11532;DHT22;5822;51.000;5.874;2023-08-06T01:06:41;18.20;99.90
11532;DHT22;5822;51.000;5.874;2023-08-06T01:09:27;18.10;99.90
11532;DHT22;5822;51.000;5.874;2023-08-06T01:12:03;18.10;99.90
11532;DHT22;5822;51.000;5.874;2023-08-06T01:17:14;18.20;99.90
11532;DHT22;5822;51.000;5.874;2023-08-06T01:19:39;18.20;99.90
11532;DHT22;5822;51.000;5.874;2023-08-06T01:22:05;18.10;99.90
11532;DHT22;5822;51.000;5.874;2023-08-06T01:24:31;18.10;99.90
11532;DHT22;5822;51.000;5.874;2023-08-06T01:27:06;18.10;99.90
11532;DHT22;5822;51.000;5.874;2023-08-06T01:29:38;18.00;99.90
11532;DHT22;5822;51.000;5.874;2023-08-06T01:32:05;18.00;99.90
11532;DHT22;5822;51.000;5.874;2023-08-06T01:34:33;18.00;99.90
11532;DHT22;5822;51.000;5.874;2023-08-06T01:37:00;18.00;99.90
11532;DHT22;5822;51.000;5.874;2023-08-06T01:39:26;18.00;99.90
11532;DHT22;5822;51.000;5.874;2023-08-06T01:41:52;18.00;99.90
11532;DHT22;5822;51.000;5.874;2023-08-06T01:44:18;18.00;99.90
11532;DHT22;5822;51.000;5.874;2023-08-06T01:46:43;18.10;99.90
11532;DHT22;5822;51.000;5.874;2023-08-06T01:49:09;18.10;99.90
11532;DHT22;5822;51.000;5.874;2023-08-06T01:51:34;18.10;99.90
11532;DHT22;5822;51.000;5.874;2023-08-06T01:54:00;18.10;99.90
11532;DHT22;5822;51.000;5.874;2023-08-06T01:56:26;18.10;99.90
11532;DHT22;5822;51.000;5.874;2023-08-06T01:58:51;18.10;99.90
11532;DHT22;5822;51.000;5.874;2023-08-06T02:01:17;18.10;99.90
11532;DHT22;5822;51.000;5.874;2023-08-06T02:03:43;18.10;99.90
11532;DHT22;5822;51.000;5.874;2023-08-06T02:06:08;18.10;99.90
11532;DHT22;5822;51.000;5.874;2023-08-06T02:08:34;18.10;99.90
11532;DHT22;5822;51.000;5.874;2023-08-06T02:10:59;18.10;99.90
11532;DHT22;5822;51.000;5.874;2023-08-06T02:13:25;18.10;99.90
11532;DHT22;5822;51.000;5.874;2023-08-06T02:15:51;18.10;99.90
11532;DHT22;5822;51.000;5.874;2023-08-06T02:18:16;18.10;99.90
11532;DHT22;5822;51.000;5.874;2023-08-06T02:20:42;18.10;99.90
11532;DHT22;5822;51.000;5.874;2023-08-06T02:23:09;18.10;99.90
11532;DHT22;5822;51.000;5.874;2023-08-06T02:25:35;18.10;99.90
11532;DHT22;5822;51.000;5.874;2023-08-06T02:28:01;18.10;99.90
11532;DHT22;5822;51.000;5.874;2023-08-06T02:30:26;18.10;99.90
11532;DHT22;5822;51.000;5.874;2023-08-06T02:32:52;18.10;99.90
11532;DHT22;5822;51.000;5.874;2023-08-06T02:35:18;18.10;99.90
11532;DHT22;5822;51.000;5.874;2023-08-06T02:37:43;18.20;99.90
11532;DHT22;5822;51.000;5.874;2023-08-06T02:40:09;18.20;99.90
11532;DHT22;5822;51.000;5.874;2023-08-06T02:42:35;18.10;99.90
11532;DHT22;5822;51.000;5.874;2023-08-06T02:45:01;18.10;99.90
11532;DHT22;5822;51.000;5.874;2023-08-06T02:47:27;18.10;99.90
11532;DHT22;5822;51.000;5.874;2023-08-06T02:49:53;18.10;99.90
11532;DHT22;5822;51.000;5.874;2023-08-06T02:52:18;18.10;99.90
11532;DHT22;5822;51.000;5.874;2023-08-06T02:54:44;18.20;99.90
11532;DHT22;5822;51.000;5.874;2023-08-06T02:57:10;18.20;99.90
11532;DHT22;5822;51.000;5.874;2023-08-06T02:59:35;18.20;99.90
11532;DHT22;5822;51.000;5.874;2023-08-06T03:02:01;18.20;99.90
11532;DHT22;5822;51.000;5.874;2023-08-06T03:04:27;18.20;99.90
11532;DHT22;5822;51.000;5.874;2023-08-06T03:06:52;18.20;99.90
11532;DHT22;5822;51.000;5.874;2023-08-06T03:09:18;18.20;99.90
11532;DHT22;5822;51.000;5.874;2023-08-06T03:11:44;18.10;99.90
11532;DHT22;5822;51.000;5.874;2023-08-06T03:14:09;18.10;99.90
11532;DHT22;5822;51.000;5.874;2023-08-06T03:16:35;18.10;99.90
11532;DHT22;5822;51.000;5.874;2023-08-06T03:19:01;18.10;99.90
11532;DHT22;5822;51.000;5.874;2023-08-06T03:21:29;18.10;99.90
11532;DHT22;5822;51.000;5.874;2023-08-06T03:23:54;18.20;99.90
11532;DHT22;5822;51.000;5.874;2023-08-06T03:26:20;18.20;99.90
11532;DHT22;5822;51.000;5.874;2023-08-06T03:28:46;18.20;99.90
11532;DHT22;5822;51.000;5.874;2023-08-06T03:31:11;18.30;99.90
11532;DHT22;5822;51.000;5.874;2023-08-06T03:33:37;18.30;99.90
11532;DHT22;5822;51.000;5.874;2023-08-06T03:36:02;18.30;99.90
11532;DHT22;5822;51.000;5.874;2023-08-06T03:38:28;18.20;99.90
11532;DHT22;5822;51.000;5.874;2023-08-06T03:40:54;18.30;99.90
11532;DHT22;5822;51.000;5.874;2023-08-06T03:43:19;18.30;99.90
11532;DHT22;5822;51.000;5.874;2023-08-06T03:45:45;18.30;99.90
11532;DHT22;5822;51.000;5.874;2023-08-06T03:48:11;18.20;99.90
11532;DHT22;5822;51.000;5.874;2023-08-06T03:50:37;18.20;99.90
11532;DHT22;5822;51.000;5.874;2023-08-06T03:53:03;18.20;99.90
11532;DHT22;5822;51.000;5.874;2023-08-06T03:55:29;18.20;99.90
11532;DHT22;5822;51.000;5.874;2023-08-06T03:57:54;18.20;99.90
11532;DHT22;5822;51.000;5.874;2023-08-06T04:00:20;18.10;99.90
11532;DHT22;5822;51.000;5.874;2023-08-06T04:02:46;18.10;99.90
11532;DHT22;5822;51.000;5.874;2023-08-06T04:11:51;18.20;99.90
11532;DHT22;5822;51.000;5.874;2023-08-06T04:14:17;18.20;99.90
11532;DHT22;5822;51.000;5.874;2023-08-06T04:19:18;18.30;99.90
11532;DHT22;5822;51.000;5.874;2023-08-06T04:21:44;18.30;99.90
11532;DHT22;5822;51.000;5.874;2023-08-06T04:24:09;18.30;99.90
11532;DHT22;5822;51.000;5.874;2023-08-06T04:26:35;18.30;99.90
11532;DHT22;5822;51.000;5.874;2023-08-06T04:29:01;18.30;99.90
11532;DHT22;5822;51.000;5.874;2023-08-06T04:31:26;18.30;99.90
11532;DHT22;5822;51.000;5.874;2023-08-06T04:33:52;18.30;99.90
11532;DHT22;5822;51.000;5.874;2023-08-06T04:36:17;18.20;99.90
11532;DHT22;5822;51.000;5.874;2023-08-06T04:38:43;18.20;99.90
11532;DHT22;5822;51.000;5.874;2023-08-06T04:41:11;18.20;99.90
11532;DHT22;5822;51.000;5.874;2023-08-06T04:43:37;18.20;99.90
11532;DHT22;5822;51.000;5.874;2023-08-06T04:46:02;18.20;99.90
11532;DHT22;5822;51.000;5.874;2023-08-06T04:48:28;18.20;99.90
11532;DHT22;5822;51.000;5.874;2023-08-06T04:50:53;18.30;99.90
11532;DHT22;5822;51.000;5.874;2023-08-06T04:53:20;18.30;99.90
11532;DHT22;5822;51.000;5.874;2023-08-06T04:55:45;18.30;99.90
11532;DHT22;5822;51.000;5.874;2023-08-06T04:58:12;18.40;99.90
11532;DHT22;5822;51.000;5.874;2023-08-06T05:00:38;18.30;99.90
11532;DHT22;5822;51.000;5.874;2023-08-06T05:03:05;18.30;99.90
11532;DHT22;5822;51.000;5.874;2023-08-06T05:05:31;18.30;99.90
11532;DHT22;5822;51.000;5.874;2023-08-06T05:07:57;18.30;99.90
11532;DHT22;5822;51.000;5.874;2023-08-06T05:10:26;18.30;99.90
11532;DHT22;5822;51.000;5.874;2023-08-06T05:12:53;18.20;99.90
11532;DHT22;5822;51.000;5.874;2023-08-06T05:15:18;18.20;99.90
11532;DHT22;5822;51.000;5.874;2023-08-06T05:17:44;18.20;99.90
11532;DHT22;5822;51.000;5.874;2023-08-06T05:20:10;18.30;99.90
11532;DHT22;5822;51.000;5.874;2023-08-06T05:22:36;18.30;99.90
11532;DHT22;5822;51.000;5.874;2023-08-06T05:25:02;18.30;99.90
11532;DHT22;5822;51.000;5.874;2023-08-06T05:27:28;18.40;99.90
11532;DHT22;5822;51.000;5.874;2023-08-06T05:29:55;18.40;99.90
11532;DHT22;5822;51.000;5.874;2023-08-06T05:32:21;18.40;99.90
11532;DHT22;5822;51.000;5.874;2023-08-06T05:34:47;18.40;99.90
11532;DHT22;5822;51.000;5.874;2023-08-06T05:37:13;18.40;99.90
11532;DHT22;5822;51.000;5.874;2023-08-06T05:39:38;18.40;99.90
11532;DHT22;5822;51.000;5.874;2023-08-06T05:42:05;18.40;99.90
11532;DHT22;5822;51.000;5.874;2023-08-06T05:44:31;18.40;99.90
11532;DHT22;5822;51.000;5.874;2023-08-06T05:46:56;18.40;99.90
11532;DHT22;5822;51.000;5.874;2023-08-06T05:49:22;18.40;99.90
11532;DHT22;5822;51.000;5.874;2023-08-06T05:51:49;18.40;99.90
11532;DHT22;5822;51.000;5.874;2023-08-06T05:54:15;18.30;99.90
11532;DHT22;5822;51.000;5.874;2023-08-06T05:56:41;18.40;99.90
11532;DHT22;5822;51.000;5.874;2023-08-06T05:59:06;18.40;99.90
11532;DHT22;5822;51.000;5.874;2023-08-06T06:01:32;18.40;99.90
11532;DHT22;5822;51.000;5.874;2023-08-06T06:03:57;18.40;99.90
11532;DHT22;5822;51.000;5.874;2023-08-06T06:06:23;18.40;99.90
11532;DHT22;5822;51.000;5.874;2023-08-06T06:08:49;18.40;99.90
11532;DHT22;5822;51.000;5.874;2023-08-06T06:11:14;18.40;99.90
11532;DHT22;5822;51.000;5.874;2023-08-06T06:13:40;18.40;99.90
11532;DHT22;5822;51.000;5.874;2023-08-06T06:16:05;18.40;99.90
11532;DHT22;5822;51.000;5.874;2023-08-06T06:18:31;18.40;99.90
11532;DHT22;5822;51.000;5.874;2023-08-06T06:20:57;18.40;99.90
11532;DHT22;5822;51.000;5.874;2023-08-06T06:23:22;18.30;99.90
11532;DHT22;5822;51.000;5.874;2023-08-06T06:25:49;18.30;99.90
11532;DHT22;5822;51.000;5.874;2023-08-06T06:28:17;18.30;99.90
11532;DHT22;5822;51.000;5.874;2023-08-06T06:30:43;18.30;99.90
11532;DHT22;5822;51.000;5.874;2023-08-06T06:33:09;18.20;99.90
11532;DHT22;5822;51.000;5.874;2023-08-06T06:35:34;18.20;99.90
11532;DHT22;5822;51.000;5.874;2023-08-06T06:38:00;18.10;99.90
11532;DHT22;5822;51.000;5.874;2023-08-06T06:40:26;18.00;99.90
11532;DHT22;5822;51.000;5.874;2023-08-06T06:42:52;18.00;99.90
11532;DHT22;5822;51.000;5.874;2023-08-06T06:45:17;17.90;99.90
11532;DHT22;5822;51.000;5.874;2023-08-06T06:47:43;17.90;99.90
11532;DHT22;5822;51.000;5.874;2023-08-06T06:50:09;17.80;99.90
11532;DHT22;5822;51.000;5.874;2023-08-06T06:52:35;17.80;99.90
11532;DHT22;5822;51.000;5.874;2023-08-06T06:55:01;17.80;99.90
11532;DHT22;5822;51.000;5.874;2023-08-06T06:57:26;17.80;99.90
11532;DHT22;5822;51.000;5.874;2023-08-06T06:59:52;17.80;99.90
11532;DHT22;5822;51.000;5.874;2023-08-06T07:02:18;17.70;99.90
11532;DHT22;5822;51.000;5.874;2023-08-06T07:04:43;17.70;99.90
11532;DHT22;5822;51.000;5.874;2023-08-06T07:07:09;17.70;99.90
11532;DHT22;5822;51.000;5.874;2023-08-06T07:09:35;17.70;99.90
11532;DHT22;5822;51.000;5.874;2023-08-06T07:12:01;17.70;99.90
11532;DHT22;5822;51.000;5.874;2023-08-06T07:14:28;17.70;99.90
11532;DHT22;5822;51.000;5.874;2023-08-06T07:16:53;17.70;99.90
11532;DHT22;5822;51.000;5.874;2023-08-06T07:19:21;17.70;99.90
11532;DHT22;5822;51.000;5.874;2023-08-06T07:21:47;17.70;99.90
11532;DHT22;5822;51.000;5.874;2023-08-06T07:24:13;17.60;99.90
11532;DHT22;5822;51.000;5.874;2023-08-06T07:26:38;17.60;99.90
11532;DHT22;5822;51.000;5.874;2023-08-06T07:29:04;17.60;99.90
11532;DHT22;5822;51.000;5.874;2023-08-06T07:31:30;17.70;99.90
11532;DHT22;5822;51.000;5.874;2023-08-06T07:33:55;17.70;99.90
11532;DHT22;5822;51.000;5.874;2023-08-06T07:36:21;17.60;99.90
11532;DHT22;5822;51.000;5.874;2023-08-06T07:38:47;17.70;99.90
11532;DHT22;5822;51.000;5.874;2023-08-06T07:41:16;17.60;99.90
11532;DHT22;5822;51.000;5.874;2023-08-06T07:43:42;17.60;99.90
11532;DHT22;5822;51.000;5.874;2023-08-06T07:46:08;17.50;99.90
11532;DHT22;5822;51.000;5.874;2023-08-06T07:48:33;17.30;99.90
11532;DHT22;5822;51.000;5.874;2023-08-06T07:50:59;17.00;99.90
11532;DHT22;5822;51.000;5.874;2023-08-06T07:53:26;16.90;99.90
11532;DHT22;5822;51.000;5.874;2023-08-06T07:55:57;16.80;99.90
11532;DHT22;5822;51.000;5.874;2023-08-06T07:58:24;16.70;99.90
11532;DHT22;5822;51.000;5.874;2023-08-06T08:00:51;16.60;99.90
11532;DHT22;5822;51.000;5.874;2023-08-06T08:03:17;16.50;99.90
11532;DHT22;5822;51.000;5.874;2023-08-06T08:05:43;16.50;99.90
11532;DHT22;5822;51.000;5.874;2023-08-06T08:08:09;16.60;99.90
11532;DHT22;5822;51.000;5.874;2023-08-06T08:10:35;16.60;99.90
11532;DHT22;5822;51.000;5.874;2023-08-06T08:13:02;16.60;99.90
11532;DHT22;5822;51.000;5.874;2023-08-06T08:15:31;16.60;99.90
11532;DHT22;5822;51.000;5.874;2023-08-06T08:17:59;16.70;99.90
11532;DHT22;5822;51.000;5.874;2023-08-06T08:20:26;16.70;99.90
11532;DHT22;5822;51.000;5.874;2023-08-06T08:22:57;16.70;99.90
11532;DHT22;5822;51.000;5.874;2023-08-06T08:25:23;16.70;99.90
11532;DHT22;5822;51.000;5.874;2023-08-06T08:27:48;16.70;99.90
11532;DHT22;5822;51.000;5.874;2023-08-06T08:30:14;16.80;99.90
11532;DHT22;5822;51.000;5.874;2023-08-06T08:32:40;16.70;99.90
11532;DHT22;5822;51.000;5.874;2023-08-06T08:35:05;16.70;99.90
11532;DHT22;5822;51.000;5.874;2023-08-06T08:37:31;16.70;99.90
11532;DHT22;5822;51.000;5.874;2023-08-06T08:40:05;16.60;99.90
11532;DHT22;5822;51.000;5.874;2023-08-06T08:42:31;16.50;99.90
11532;DHT22;5822;51.000;5.874;2023-08-06T08:44:58;16.50;99.90
11532;DHT22;5822;51.000;5.874;2023-08-06T08:47:28;16.60;99.90
11532;DHT22;5822;51.000;5.874;2023-08-06T08:49:54;16.50;99.90
11532;DHT22;5822;51.000;5.874;2023-08-06T08:52:24;16.50;99.90
11532;DHT22;5822;51.000;5.874;2023-08-06T08:54:51;16.50;99.90
11532;DHT22;5822;51.000;5.874;2023-08-06T08:57:19;16.40;99.90
11532;DHT22;5822;51.000;5.874;2023-08-06T08:59:45;16.50;99.90
11532;DHT22;5822;51.000;5.874;2023-08-06T09:02:13;16.50;99.90
11532;DHT22;5822;51.000;5.874;2023-08-06T09:04:40;16.50;99.90
11532;DHT22;5822;51.000;5.874;2023-08-06T09:07:08;16.50;99.90
11532;DHT22;5822;51.000;5.874;2023-08-06T09:09:35;16.50;99.90
11532;DHT22;5822;51.000;5.874;2023-08-06T09:12:12;16.50;99.90
11532;DHT22;5822;51.000;5.874;2023-08-06T09:14:39;16.50;99.90
11532;DHT22;5822;51.000;5.874;2023-08-06T09:17:05;16.60;99.90
11532;DHT22;5822;51.000;5.874;2023-08-06T09:19:31;16.60;99.90
11532;DHT22;5822;51.000;5.874;2023-08-06T09:21:57;16.60;99.90
11532;DHT22;5822;51.000;5.874;2023-08-06T09:24:23;16.60;99.90
11532;DHT22;5822;51.000;5.874;2023-08-06T09:26:48;16.60;99.90
11532;DHT22;5822;51.000;5.874;2023-08-06T09:29:14;16.60;99.90
11532;DHT22;5822;51.000;5.874;2023-08-06T09:31:48;16.60;99.90
11532;DHT22;5822;51.000;5.874;2023-08-06T09:34:18;16.70;99.90
11532;DHT22;5822;51.000;5.874;2023-08-06T09:36:52;16.70;99.90
11532;DHT22;5822;51.000;5.874;2023-08-06T09:39:28;16.70;99.90
11532;DHT22;5822;51.000;5.874;2023-08-06T09:41:59;16.80;99.90
11532;DHT22;5822;51.000;5.874;2023-08-06T09:44:27;16.80;99.90
11532;DHT22;5822;51.000;5.874;2023-08-06T09:46:54;16.80;99.90
11532;DHT22;5822;51.000;5.874;2023-08-06T09:49:28;16.80;99.90
11532;DHT22;5822;51.000;5.874;2023-08-06T09:51:55;16.90;99.90
11532;DHT22;5822;51.000;5.874;2023-08-06T09:54:25;16.80;99.90
11532;DHT22;5822;51.000;5.874;2023-08-06T09:56:56;16.90;99.90
11532;DHT22;5822;51.000;5.874;2023-08-06T09:59:23;16.90;99.90
11532;DHT22;5822;51.000;5.874;2023-08-06T10:01:49;16.90;99.90
11532;DHT22;5822;51.000;5.874;2023-08-06T10:04:15;16.90;99.90
11532;DHT22;5822;51.000;5.874;2023-08-06T10:06:47;16.90;99.90
11532;DHT22;5822;51.000;5.874;2023-08-06T10:09:15;17.00;99.90
11532;DHT22;5822;51.000;5.874;2023-08-06T10:11:43;17.00;99.90
11532;DHT22;5822;51.000;5.874;2023-08-06T10:14:18;17.00;99.90
11532;DHT22;5822;51.000;5.874;2023-08-06T10:16:45;17.10;99.90
11532;DHT22;5822;51.000;5.874;2023-08-06T10:19:12;17.10;99.90
11532;DHT22;5822;51.000;5.874;2023-08-06T10:21:39;17.10;99.90
11532;DHT22;5822;51.000;5.874;2023-08-06T10:24:07;17.10;99.90
11532;DHT22;5822;51.000;5.874;2023-08-06T10:26:36;17.20;99.90
11532;DHT22;5822;51.000;5.874;2023-08-06T10:29:02;17.20;99.90
11532;DHT22;5822;51.000;5.874;2023-08-06T10:31:54;17.30;99.90
11532;DHT22;5822;51.000;5.874;2023-08-06T10:34:21;17.30;99.90
11532;DHT22;5822;51.000;5.874;2023-08-06T10:36:47;17.30;99.90
11532;DHT22;5822;51.000;5.874;2023-08-06T10:39:15;17.20;99.90
11532;DHT22;5822;51.000;5.874;2023-08-06T10:41:42;17.20;99.90
11532;DHT22;5822;51.000;5.874;2023-08-06T10:44:10;17.20;99.90
11532;DHT22;5822;51.000;5.874;2023-08-06T10:46:37;17.20;99.90
11532;DHT22;5822;51.000;5.874;2023-08-06T10:49:04;17.20;99.90
11532;DHT22;5822;51.000;5.874;2023-08-06T10:51:30;17.20;99.90
11532;DHT22;5822;51.000;5.874;2023-08-06T10:53:56;17.30;99.90
11532;DHT22;5822;51.000;5.874;2023-08-06T10:56:25;17.30;99.90
11532;DHT22;5822;51.000;5.874;2023-08-06T10:58:54;17.30;99.90
11532;DHT22;5822;51.000;5.874;2023-08-06T11:01:22;17.40;99.90
11532;DHT22;5822;51.000;5.874;2023-08-06T11:03:47;17.30;99.90
11532;DHT22;5822;51.000;5.874;2023-08-06T11:06:19;17.40;99.90
11532;DHT22;5822;51.000;5.874;2023-08-06T11:08:51;17.40;99.90
11532;DHT22;5822;51.000;5.874;2023-08-06T11:11:18;17.40;99.90
11532;DHT22;5822;51.000;5.874;2023-08-06T11:13:45;17.40;99.90
11532;DHT22;5822;51.000;5.874;2023-08-06T11:16:13;17.40;99.90
11532;DHT22;5822;51.000;5.874;2023-08-06T11:18:40;17.40;99.90
11532;DHT22;5822;51.000;5.874;2023-08-06T11:21:07;17.50;99.90
11532;DHT22;5822;51.000;5.874;2023-08-06T11:23:34;17.50;99.90
11532;DHT22;5822;51.000;5.874;2023-08-06T11:26:00;17.40;99.90
11532;DHT22;5822;51.000;5.874;2023-08-06T11:28:26;17.50;99.90
11532;DHT22;5822;51.000;5.874;2023-08-06T11:30:52;17.50;99.90
11532;DHT22;5822;51.000;5.874;2023-08-06T11:33:25;17.50;99.90
11532;DHT22;5822;51.000;5.874;2023-08-06T11:35:51;17.60;99.90
11532;DHT22;5822;51.000;5.874;2023-08-06T11:38:17;17.60;99.90
11532;DHT22;5822;51.000;5.874;2023-08-06T11:40:47;17.60;99.90
11532;DHT22;5822;51.000;5.874;2023-08-06T11:43:14;17.50;99.90
11532;DHT22;5822;51.000;5.874;2023-08-06T11:45:40;17.60;99.90
11532;DHT22;5822;51.000;5.874;2023-08-06T11:48:09;17.60;99.90
11532;DHT22;5822;51.000;5.874;2023-08-06T11:50:37;17.60;99.90
11532;DHT22;5822;51.000;5.874;2023-08-06T11:53:04;17.50;99.90
11532;DHT22;5822;51.000;5.874;2023-08-06T11:55:30;17.50;99.90
11532;DHT22;5822;51.000;5.874;2023-08-06T11:57:57;17.50;99.90
11532;DHT22;5822;51.000;5.874;2023-08-06T12:00:24;17.50;99.90
11532;DHT22;5822;51.000;5.874;2023-08-06T12:02:53;17.40;99.90
11532;DHT22;5822;51.000;5.874;2023-08-06T12:05:39;17.50;99.90
11532;DHT22;5822;51.000;5.874;2023-08-06T12:08:06;17.50;99.90
11532;DHT22;5822;51.000;5.874;2023-08-06T12:10:32;17.50;99.90
11532;DHT22;5822;51.000;5.874;2023-08-06T12:12:58;17.60;99.90
11532;DHT22;5822;51.000;5.874;2023-08-06T12:15:24;17.60;99.90
11532;DHT22;5822;51.000;5.874;2023-08-06T12:17:50;17.60;99.90
11532;DHT22;5822;51.000;5.874;2023-08-06T12:20:16;17.60;99.90
11532;DHT22;5822;51.000;5.874;2023-08-06T12:22:41;17.60;99.90
11532;DHT22;5822;51.000;5.874;2023-08-06T12:25:09;17.50;99.90
11532;DHT22;5822;51.000;5.874;2023-08-06T12:27:38;17.60;99.90
11532;DHT22;5822;51.000;5.874;2023-08-06T12:30:05;17.60;99.90
11532;DHT22;5822;51.000;5.874;2023-08-06T12:32:32;17.70;99.90
11532;DHT22;5822;51.000;5.874;2023-08-06T12:34:57;17.60;99.90
11532;DHT22;5822;51.000;5.874;2023-08-06T12:37:24;17.60;99.90
11532;DHT22;5822;51.000;5.874;2023-08-06T12:39:50;17.60;99.90
11532;DHT22;5822;51.000;5.874;2023-08-06T12:42:16;17.50;99.90
11532;DHT22;5822;51.000;5.874;2023-08-06T12:44:42;17.50;99.90
11532;DHT22;5822;51.000;5.874;2023-08-06T12:47:08;17.50;99.90
11532;DHT22;5822;51.000;5.874;2023-08-06T12:49:34;17.40;99.90
11532;DHT22;5822;51.000;5.874;2023-08-06T12:52:00;17.40;99.90
11532;DHT22;5822;51.000;5.874;2023-08-06T12:54:26;17.40;99.90
11532;DHT22;5822;51.000;5.874;2023-08-06T12:56:52;17.40;99.90
11532;DHT22;5822;51.000;5.874;2023-08-06T12:59:18;17.40;99.90
11532;DHT22;5822;51.000;5.874;2023-08-06T13:01:44;17.40;99.90
11532;DHT22;5822;51.000;5.874;2023-08-06T13:04:10;17.40;99.90
11532;DHT22;5822;51.000;5.874;2023-08-06T13:06:37;17.40;99.90
11532;DHT22;5822;51.000;5.874;2023-08-06T13:09:04;17.40;99.90
11532;DHT22;5822;51.000;5.874;2023-08-06T13:11:31;17.40;99.90
11532;DHT22;5822;51.000;5.874;2023-08-06T13:14:07;17.40;99.90
11532;DHT22;5822;51.000;5.874;2023-08-06T13:16:35;17.30;99.90
11532;DHT22;5822;51.000;5.874;2023-08-06T13:19:01;17.30;99.90
11532;DHT22;5822;51.000;5.874;2023-08-06T13:21:32;17.30;99.90
11532;DHT22;5822;51.000;5.874;2023-08-06T13:24:00;17.40;99.90
11532;DHT22;5822;51.000;5.874;2023-08-06T13:26:27;17.40;99.90
11532;DHT22;5822;51.000;5.874;2023-08-06T13:28:53;17.40;99.90
11532;DHT22;5822;51.000;5.874;2023-08-06T13:31:18;17.40;99.90
11532;DHT22;5822;51.000;5.874;2023-08-06T13:33:46;17.40;99.90
11532;DHT22;5822;51.000;5.874;2023-08-06T13:36:13;17.40;99.90
11532;DHT22;5822;51.000;5.874;2023-08-06T13:38:42;17.40;99.90
11532;DHT22;5822;51.000;5.874;2023-08-06T13:41:08;17.40;99.90
11532;DHT22;5822;51.000;5.874;2023-08-06T13:43:34;17.40;99.90
11532;DHT22;5822;51.000;5.874;2023-08-06T13:46:02;17.40;99.90
11532;DHT22;5822;51.000;5.874;2023-08-06T13:48:28;17.40;99.90
11532;DHT22;5822;51.000;5.874;2023-08-06T13:50:53;17.40;99.90
11532;DHT22;5822;51.000;5.874;2023-08-06T13:53:19;17.50;99.90
11532;DHT22;5822;51.000;5.874;2023-08-06T13:55:45;17.50;99.90
11532;DHT22;5822;51.000;5.874;2023-08-06T13:58:10;17.40;99.90
11532;DHT22;5822;51.000;5.874;2023-08-06T14:00:36;17.50;99.90
11532;DHT22;5822;51.000;5.874;2023-08-06T14:03:02;17.50;99.90
11532;DHT22;5822;51.000;5.874;2023-08-06T14:05:28;17.40;99.90
11532;DHT22;5822;51.000;5.874;2023-08-06T14:07:53;17.50;99.90
11532;DHT22;5822;51.000;5.874;2023-08-06T14:10:19;17.50;99.90
11532;DHT22;5822;51.000;5.874;2023-08-06T14:12:45;17.50;99.90
11532;DHT22;5822;51.000;5.874;2023-08-06T14:15:11;17.50;99.90
11532;DHT22;5822;51.000;5.874;2023-08-06T14:17:36;17.50;99.90
11532;DHT22;5822;51.000;5.874;2023-08-06T14:20:04;17.50;99.90
11532;DHT22;5822;51.000;5.874;2023-08-06T14:22:30;17.40;99.90
11532;DHT22;5822;51.000;5.874;2023-08-06T14:24:57;17.40;99.90
11532;DHT22;5822;51.000;5.874;2023-08-06T14:27:23;17.40;99.90
11532;DHT22;5822;51.000;5.874;2023-08-06T14:29:49;17.40;99.90
11532;DHT22;5822;51.000;5.874;2023-08-06T14:32:14;17.30;99.90
11532;DHT22;5822;51.000;5.874;2023-08-06T14:34:46;17.30;99.90
11532;DHT22;5822;51.000;5.874;2023-08-06T14:37:11;17.20;99.90
11532;DHT22;5822;51.000;5.874;2023-08-06T14:39:37;17.20;99.90
11532;DHT22;5822;51.000;5.874;2023-08-06T14:42:04;17.20;99.90
11532;DHT22;5822;51.000;5.874;2023-08-06T14:44:30;17.20;99.90
11532;DHT22;5822;51.000;5.874;2023-08-06T14:46:56;17.20;99.90
11532;DHT22;5822;51.000;5.874;2023-08-06T14:49:21;17.20;99.90
11532;DHT22;5822;51.000;5.874;2023-08-06T14:51:47;17.30;99.90
11532;DHT22;5822;51.000;5.874;2023-08-06T14:54:12;17.40;99.90
11532;DHT22;5822;51.000;5.874;2023-08-06T14:56:38;17.40;99.90
11532;DHT22;5822;51.000;5.874;2023-08-06T14:59:04;17.50;99.90
11532;DHT22;5822;51.000;5.874;2023-08-06T15:01:30;17.50;99.90
11532;DHT22;5822;51.000;5.874;2023-08-06T15:03:55;17.60;99.90
11532;DHT22;5822;51.000;5.874;2023-08-06T15:06:21;17.50;99.90
11532;DHT22;5822;51.000;5.874;2023-08-06T15:08:47;17.60;99.90
11532;DHT22;5822;51.000;5.874;2023-08-06T15:11:13;17.60;99.90
11532;DHT22;5822;51.000;5.874;2023-08-06T15:13:40;17.70;99.90
11532;DHT22;5822;51.000;5.874;2023-08-06T15:16:06;17.70;99.90
11532;DHT22;5822;51.000;5.874;2023-08-06T15:18:31;17.70;99.90
11532;DHT22;5822;51.000;5.874;2023-08-06T15:20:57;17.60;99.90
11532;DHT22;5822;51.000;5.874;2023-08-06T15:23:23;17.60;99.90
11532;DHT22;5822;51.000;5.874;2023-08-06T15:25:49;17.70;99.90
11532;DHT22;5822;51.000;5.874;2023-08-06T15:28:15;17.60;99.90
11532;DHT22;5822;51.000;5.874;2023-08-06T15:30:49;17.60;99.90
11532;DHT22;5822;51.000;5.874;2023-08-06T15:33:15;17.70;99.90
11532;DHT22;5822;51.000;5.874;2023-08-06T15:35:40;17.70;99.90
11532;DHT22;5822;51.000;5.874;2023-08-06T15:38:06;17.70;99.90
11532;DHT22;5822;51.000;5.874;2023-08-06T15:40:32;17.70;99.90
11532;DHT22;5822;51.000;5.874;2023-08-06T15:42:58;17.70;99.90
11532;DHT22;5822;51.000;5.874;2023-08-06T15:45:23;17.70;99.90
11532;DHT22;5822;51.000;5.874;2023-08-06T15:47:49;17.70;99.90
11532;DHT22;5822;51.000;5.874;2023-08-06T15:50:14;17.60;99.90
11532;DHT22;5822;51.000;5.874;2023-08-06T15:52:40;17.50;99.90